Time;durP1;ratioP1;P1;durP2;ratioP2;P2;SDS_P1;SDS_P2;PMS_P1;PMS_P2;Temp;Humidity;BMP_temperature;BMP_pressure;BME280_temperature;BME280_humidity;BME280_pressure;Samples;Min_cycle;Max_cycle;Signal;HPM_P1;HPM_P2
2022/03/24 00:01:16;;;;;;;;;;;23.10;23.00;;;;;;466671;254;1063;-57
2022/03/24 00:03:17;;;;;;;;;;;23.00;23.10;;;;;;466780;254;1066;-57
2022/03/24 00:05:19;;;;;;;;;;;22.70;23.30;;;;;;466791;254;2204;-57
2022/03/24 00:07:20;;;;;;;;;;;22.80;23.20;;;;;;466718;254;1216;-57
2022/03/24 00:09:21;;;;;;;;;;;22.60;23.40;;;;;;466709;254;977;-57
2022/03/24 00:11:22;;;;;;;;;;;22.60;23.40;;;;;;466682;254;1095;-57
2022/03/24 00:13:24;;;;;;;;;;;22.40;23.50;;;;;;466724;254;1055;-57
2022/03/24 00:15:25;;;;;;;;;;;22.50;23.40;;;;;;466767;254;1096;-57
2022/03/24 00:17:26;;;;;;;;;;;22.40;23.60;;;;;;466784;254;1093;-57
2022/03/24 00:19:28;;;;;;;;;;;22.30;23.60;;;;;;466705;254;1122;-57
2022/03/24 00:21:29;;;;;;;;;;;22.30;23.50;;;;;;466848;254;1167;-57
2022/03/24 00:23:30;;;;;;;;;;;22.40;23.50;;;;;;466969;254;1098;-57
2022/03/24 00:25:32;;;;;;;;;;;22.30;23.60;;;;;;466730;254;2126;-57
2022/03/24 00:27:33;;;;;;;;;;;22.60;23.40;;;;;;466819;254;1139;-57
2022/03/24 00:29:34;;;;;;;;;;;22.40;23.60;;;;;;466826;254;1044;-57
2022/03/24 00:31:36;;;;;;;;;;;22.50;23.50;;;;;;466831;254;1142;-57
2022/03/24 00:33:38;;;;;;;;;;;22.40;23.50;;;;;;466873;254;1017;-57
2022/03/24 00:35:38;;;;;;;;;;;22.30;23.60;;;;;;466661;254;1463;-57
2022/03/24 00:37:40;;;;;;;;;;;22.30;23.50;;;;;;466740;254;1257;-57
2022/03/24 00:39:41;;;;;;;;;;;22.30;23.60;;;;;;466701;254;1043;-57
2022/03/24 00:41:43;;;;;;;;;;;22.40;23.40;;;;;;466696;254;1051;-57
2022/03/24 00:43:44;;;;;;;;;;;22.30;23.60;;;;;;466753;254;1610;-57
2022/03/24 00:45:45;;;;;;;;;;;22.40;23.40;;;;;;466745;254;2197;-57
2022/03/24 00:47:47;;;;;;;;;;;22.30;23.60;;;;;;466667;254;1049;-57
2022/03/24 00:49:48;;;;;;;;;;;22.30;23.60;;;;;;466920;254;998;-57
2022/03/24 00:51:49;;;;;;;;;;;22.20;23.60;;;;;;466704;254;1216;-57
2022/03/24 00:53:51;;;;;;;;;;;22.30;23.60;;;;;;466731;254;1105;-57
2022/03/24 00:55:52;;;;;;;;;;;22.20;23.50;;;;;;466875;254;1075;-57
2022/03/24 00:57:53;;;;;;;;;;;22.30;23.60;;;;;;466651;254;982;-58
2022/03/24 00:59:54;;;;;;;;;;;22.20;23.60;;;;;;466883;254;1111;-57
2022/03/24 01:01:56;;;;;;;;;;;22.30;23.50;;;;;;466684;254;1257;-57
2022/03/24 01:03:57;;;;;;;;;;;22.20;23.60;;;;;;466864;254;1055;-57
2022/03/24 01:05:58;;;;;;;;;;;22.30;23.60;;;;;;466788;254;2126;-57
2022/03/24 01:08:00;;;;;;;;;;;22.20;23.60;;;;;;466745;254;1352;-57
2022/03/24 01:10:01;;;;;;;;;;;22.20;23.50;;;;;;466873;254;955;-57
2022/03/24 01:12:05;;;;;;;;;;;22.10;23.60;;;;;;466680;254;974;-57
2022/03/24 01:14:05;;;;;;;;;;;22.40;23.40;;;;;;466671;254;1464;-57
2022/03/24 01:16:05;;;;;;;;;;;22.30;23.60;;;;;;466783;254;1471;-57
2022/03/24 01:18:07;;;;;;;;;;;22.20;23.60;;;;;;466676;254;990;-57
2022/03/24 01:20:08;;;;;;;;;;;22.20;23.60;;;;;;466706;254;2363;-57
2022/03/24 01:22:09;;;;;;;;;;;22.10;23.60;;;;;;466728;254;1245;-57
2022/03/24 01:24:11;;;;;;;;;;;22.20;23.60;;;;;;466822;254;1038;-57
2022/03/24 01:26:12;;;;;;;;;;;22.20;23.60;;;;;;466984;254;2197;-57
2022/03/24 01:28:14;;;;;;;;;;;22.10;23.50;;;;;;466752;254;1041;-57
2022/03/24 01:30:15;;;;;;;;;;;22.10;23.50;;;;;;466888;254;2301;-57
2022/03/24 01:32:18;;;;;;;;;;;22.10;23.60;;;;;;466701;254;1060;-57
2022/03/24 01:34:17;;;;;;;;;;;22.10;23.50;;;;;;466751;254;1580;-57
2022/03/24 01:36:19;;;;;;;;;;;22.10;23.60;;;;;;466701;254;1068;-57
2022/03/24 01:38:23;;;;;;;;;;;22.10;23.50;;;;;;466699;254;1178;-57
2022/03/24 01:40:21;;;;;;;;;;;22.00;23.60;;;;;;466791;254;1351;-57
2022/03/24 01:42:23;;;;;;;;;;;22.10;23.60;;;;;;466668;254;1069;-57
2022/03/24 01:44:24;;;;;;;;;;;22.10;23.50;;;;;;466696;254;959;-57
2022/03/24 01:46:25;;;;;;;;;;;22.40;23.40;;;;;;466787;254;2118;-58
2022/03/24 01:48:27;;;;;;;;;;;22.50;23.40;;;;;;466872;254;1356;-57
2022/03/24 01:50:28;;;;;;;;;;;22.80;23.10;;;;;;466693;254;1143;-57
2022/03/24 01:52:30;;;;;;;;;;;22.80;23.10;;;;;;466640;254;1285;-57
2022/03/24 01:54:31;;;;;;;;;;;23.00;23.00;;;;;;466729;254;1053;-57
2022/03/24 01:56:32;;;;;;;;;;;23.20;22.80;;;;;;466720;254;1030;-57
2022/03/24 01:58:34;;;;;;;;;;;23.30;22.80;;;;;;466745;254;1061;-57
2022/03/24 02:00:35;;;;;;;;;;;23.50;22.70;;;;;;466913;254;1085;-57
2022/03/24 02:02:37;;;;;;;;;;;23.40;22.60;;;;;;466698;254;1089;-57
2022/03/24 02:04:38;;;;;;;;;;;23.50;22.70;;;;;;466788;254;1429;-58
2022/03/24 02:06:39;;;;;;;;;;;23.50;22.70;;;;;;466668;254;2216;-58
2022/03/24 02:08:40;;;;;;;;;;;23.50;22.60;;;;;;466764;254;1202;-57
2022/03/24 02:10:42;;;;;;;;;;;23.40;22.80;;;;;;466733;254;1137;-57
2022/03/24 02:12:43;;;;;;;;;;;23.30;22.80;;;;;;466710;254;1081;-57
2022/03/24 02:14:44;;;;;;;;;;;23.10;23.00;;;;;;466731;254;1064;-58
2022/03/24 02:16:46;;;;;;;;;;;22.90;23.10;;;;;;466688;254;1101;-57
2022/03/24 02:18:48;;;;;;;;;;;22.90;23.10;;;;;;466744;254;1073;-57
2022/03/24 02:20:50;;;;;;;;;;;22.70;23.30;;;;;;466801;254;2456;-57
2022/03/24 02:22:51;;;;;;;;;;;22.70;23.30;;;;;;466707;254;1714;-57
2022/03/24 02:24:51;;;;;;;;;;;22.50;23.40;;;;;;466743;254;1309;-57
2022/03/24 02:26:52;;;;;;;;;;;22.40;23.50;;;;;;466727;254;2189;-57
2022/03/24 02:28:54;;;;;;;;;;;22.40;23.50;;;;;;466750;254;1252;-58
2022/03/24 02:30:55;;;;;;;;;;;22.40;23.50;;;;;;467080;254;1820;-57
2022/03/24 02:32:56;;;;;;;;;;;22.40;23.50;;;;;;466733;254;1185;-57
2022/03/24 02:34:58;;;;;;;;;;;22.30;23.60;;;;;;466720;254;1102;-57
2022/03/24 02:36:59;;;;;;;;;;;22.40;23.60;;;;;;466814;254;1228;-57
2022/03/24 02:39:00;;;;;;;;;;;22.40;23.50;;;;;;466765;254;1164;-57
2022/03/24 02:41:02;;;;;;;;;;;22.30;23.60;;;;;;466784;254;1035;-58
2022/03/24 02:43:03;;;;;;;;;;;22.30;23.60;;;;;;466702;254;1078;-57
2022/03/24 02:45:05;;;;;;;;;;;22.20;23.70;;;;;;466745;254;2122;-57
2022/03/24 02:47:06;;;;;;;;;;;22.40;23.50;;;;;;466829;254;1041;-57
2022/03/24 02:49:08;;;;;;;;;;;22.60;23.40;;;;;;466706;254;1066;-57
2022/03/24 02:51:09;;;;;;;;;;;22.30;23.60;;;;;;466694;254;1354;-57
2022/03/24 02:53:10;;;;;;;;;;;22.20;23.60;;;;;;466834;254;1149;-57
2022/03/24 02:55:11;;;;;;;;;;;22.30;23.70;;;;;;467155;254;1109;-57
2022/03/24 02:57:13;;;;;;;;;;;22.40;23.70;;;;;;466816;254;1081;-57
2022/03/24 02:59:14;;;;;;;;;;;22.30;23.70;;;;;;466762;254;1085;-58
2022/03/24 03:01:18;;;;;;;;;;;22.30;23.70;;;;;;466690;254;1010;-57
2022/03/24 03:03:17;;;;;;;;;;;22.30;23.80;;;;;;466748;254;1366;-57
2022/03/24 03:05:18;;;;;;;;;;;22.20;23.80;;;;;;466714;254;2134;-57
2022/03/24 03:07:20;;;;;;;;;;;22.20;23.80;;;;;;466661;254;1219;-57
2022/03/24 03:09:21;;;;;;;;;;;22.30;23.70;;;;;;466739;254;1066;-57
2022/03/24 03:11:22;;;;;;;;;;;22.20;23.90;;;;;;466679;254;1052;-57
2022/03/24 03:13:24;;;;;;;;;;;22.20;23.90;;;;;;466787;254;1047;-57
2022/03/24 03:15:25;;;;;;;;;;;22.20;23.90;;;;;;466619;254;1072;-57
2022/03/24 03:17:28;;;;;;;;;;;22.30;23.80;;;;;;466605;254;1106;-58
2022/03/24 03:19:28;;;;;;;;;;;22.10;24.00;;;;;;466624;254;2388;-57
2022/03/24 03:21:29;;;;;;;;;;;22.30;23.80;;;;;;466567;254;1095;-57
2022/03/24 03:23:31;;;;;;;;;;;22.20;24.00;;;;;;466716;254;1304;-57
2022/03/24 03:25:32;;;;;;;;;;;22.20;23.90;;;;;;466646;254;2201;-57
2022/03/24 03:27:33;;;;;;;;;;;22.10;24.00;;;;;;466584;254;1064;-57
2022/03/24 03:29:35;;;;;;;;;;;22.20;24.00;;;;;;466715;254;1065;-57
2022/03/24 03:31:36;;;;;;;;;;;22.10;24.10;;;;;;466582;254;1049;-57
2022/03/24 03:33:37;;;;;;;;;;;22.20;24.00;;;;;;466662;254;1075;-57
2022/03/24 03:35:39;;;;;;;;;;;22.00;24.10;;;;;;466641;254;1104;-57
2022/03/24 03:37:40;;;;;;;;;;;22.10;24.10;;;;;;466636;254;1151;-57
2022/03/24 03:39:41;;;;;;;;;;;22.10;24.10;;;;;;466787;254;998;-57
2022/03/24 03:41:43;;;;;;;;;;;22.10;24.00;;;;;;466598;254;1063;-57
2022/03/24 03:43:44;;;;;;;;;;;22.10;24.10;;;;;;466629;254;1282;-57
2022/03/24 03:45:45;;;;;;;;;;;22.20;23.90;;;;;;466679;254;2122;-57
2022/03/24 03:47:47;;;;;;;;;;;22.20;24.00;;;;;;466661;254;1071;-57
2022/03/24 03:49:48;;;;;;;;;;;22.30;23.90;;;;;;466759;254;979;-57
2022/03/24 03:51:49;;;;;;;;;;;22.20;24.00;;;;;;466681;254;1101;-57
2022/03/24 03:53:51;;;;;;;;;;;22.20;24.00;;;;;;466663;254;1215;-57
2022/03/24 03:55:52;;;;;;;;;;;22.10;24.00;;;;;;466662;254;1059;-57
2022/03/24 03:57:53;;;;;;;;;;;22.20;24.10;;;;;;466676;254;1005;-57
2022/03/24 03:59:55;;;;;;;;;;;22.10;24.10;;;;;;466709;254;1095;-57
2022/03/24 04:01:57;;;;;;;;;;;22.10;24.10;;;;;;466679;254;1085;-57
2022/03/24 04:03:57;;;;;;;;;;;22.10;24.10;;;;;;466659;254;1477;-57
2022/03/24 04:05:59;;;;;;;;;;;22.00;24.10;;;;;;466633;254;2184;-57
2022/03/24 04:08:01;;;;;;;;;;;22.00;24.10;;;;;;466610;254;1183;-57
2022/03/24 04:10:02;;;;;;;;;;;22.00;24.20;;;;;;466654;254;1000;-57
2022/03/24 04:12:03;;;;;;;;;;;22.00;24.10;;;;;;466591;254;1032;-57
2022/03/24 04:14:05;;;;;;;;;;;21.90;24.20;;;;;;466663;254;1081;-57
2022/03/24 04:16:06;;;;;;;;;;;22.00;24.20;;;;;;466770;254;1167;-57
2022/03/24 04:18:09;;;;;;;;;;;22.00;24.20;;;;;;466615;254;1107;-57
2022/03/24 04:20:10;;;;;;;;;;;21.90;24.30;;;;;;466608;254;1302;-58
2022/03/24 04:22:11;;;;;;;;;;;21.90;24.20;;;;;;466708;254;1972;-57
2022/03/24 04:24:13;;;;;;;;;;;21.90;24.20;;;;;;466591;254;1212;-57
2022/03/24 04:26:13;;;;;;;;;;;21.90;24.20;;;;;;466622;254;2141;-57
2022/03/24 04:28:15;;;;;;;;;;;21.90;24.20;;;;;;466811;254;1288;-57
2022/03/24 04:30:17;;;;;;;;;;;21.90;24.20;;;;;;466619;254;1143;-57
2022/03/24 04:32:18;;;;;;;;;;;21.90;24.30;;;;;;466670;254;1404;-58
2022/03/24 04:34:19;;;;;;;;;;;21.90;24.30;;;;;;466652;254;1107;-57
2022/03/24 04:36:21;;;;;;;;;;;21.90;24.20;;;;;;466615;254;1059;-57
2022/03/24 04:38:22;;;;;;;;;;;22.10;24.10;;;;;;466659;254;1315;-57
2022/03/24 04:40:24;;;;;;;;;;;21.90;24.20;;;;;;466696;254;1194;-57
2022/03/24 04:42:25;;;;;;;;;;;21.90;24.10;;;;;;466701;254;1863;-57
2022/03/24 04:44:26;;;;;;;;;;;22.00;24.10;;;;;;466614;254;1029;-57
2022/03/24 04:46:27;;;;;;;;;;;22.00;24.10;;;;;;466661;254;2189;-58
2022/03/24 04:48:35;;;;;;;;;;;22.00;24.20;;;;;;466709;254;1056;-57
2022/03/24 04:50:30;;;;;;;;;;;21.90;24.20;;;;;;466689;254;1867;-57
2022/03/24 04:52:31;;;;;;;;;;;22.00;24.20;;;;;;466636;254;1050;-57
2022/03/24 04:54:33;;;;;;;;;;;21.90;24.20;;;;;;466690;254;1221;-57
2022/03/24 04:56:34;;;;;;;;;;;22.00;24.20;;;;;;466635;254;1063;-57
2022/03/24 04:58:35;;;;;;;;;;;21.90;24.20;;;;;;466638;254;1010;-57
2022/03/24 05:00:37;;;;;;;;;;;21.90;24.20;;;;;;466722;254;1071;-57
2022/03/24 05:02:38;;;;;;;;;;;22.00;24.10;;;;;;466616;254;1162;-58
2022/03/24 05:04:39;;;;;;;;;;;21.90;24.20;;;;;;466614;254;999;-57
2022/03/24 05:06:41;;;;;;;;;;;21.80;24.20;;;;;;466526;254;2200;-57
2022/03/24 05:08:42;;;;;;;;;;;21.90;24.20;;;;;;466598;254;1691;-57
2022/03/24 05:10:43;;;;;;;;;;;22.10;24.10;;;;;;466573;254;1111;-58
2022/03/24 05:12:45;;;;;;;;;;;22.00;24.10;;;;;;466559;254;996;-58
2022/03/24 05:14:46;;;;;;;;;;;22.00;24.10;;;;;;466545;254;1076;-57
2022/03/24 05:16:47;;;;;;;;;;;22.00;24.10;;;;;;466525;254;1174;-57
2022/03/24 05:18:49;;;;;;;;;;;22.00;24.10;;;;;;466486;254;1077;-57
2022/03/24 05:20:50;;;;;;;;;;;22.00;24.10;;;;;;466465;254;983;-57
2022/03/24 05:22:51;;;;;;;;;;;22.00;24.20;;;;;;466516;254;1077;-57
2022/03/24 05:24:53;;;;;;;;;;;22.00;24.10;;;;;;466542;254;1215;-57
2022/03/24 05:26:54;;;;;;;;;;;21.90;24.20;;;;;;466475;254;2197;-58
2022/03/24 05:28:55;;;;;;;;;;;22.00;24.20;;;;;;466513;254;1126;-57
2022/03/24 05:30:57;;;;;;;;;;;22.00;24.20;;;;;;466544;254;1081;-57
2022/03/24 05:32:58;;;;;;;;;;;22.00;24.10;;;;;;466504;254;1085;-57
2022/03/24 05:35:00;;;;;;;;;;;22.00;24.20;;;;;;466560;254;1062;-57
2022/03/24 05:37:01;;;;;;;;;;;22.10;24.10;;;;;;466519;254;2308;-57
2022/03/24 05:39:02;;;;;;;;;;;22.00;24.20;;;;;;466605;254;1327;-57
2022/03/24 05:41:03;;;;;;;;;;;22.10;24.20;;;;;;466547;254;1111;-57
2022/03/24 05:43:05;;;;;;;;;;;22.10;24.10;;;;;;466507;254;1063;-57
2022/03/24 05:45:06;;;;;;;;;;;22.10;24.10;;;;;;466411;254;2386;-57
2022/03/24 05:47:08;;;;;;;;;;;22.20;24.10;;;;;;466459;254;2147;-57
2022/03/24 05:49:08;;;;;;;;;;;22.00;24.20;;;;;;466508;254;1296;-57
2022/03/24 05:51:10;;;;;;;;;;;22.00;24.20;;;;;;466440;254;994;-58
2022/03/24 05:53:11;;;;;;;;;;;22.00;24.20;;;;;;466401;254;1147;-57
2022/03/24 05:55:12;;;;;;;;;;;22.00;24.20;;;;;;466426;254;1221;-57
2022/03/24 05:57:14;;;;;;;;;;;22.00;24.20;;;;;;466441;254;1096;-57
2022/03/24 05:59:15;;;;;;;;;;;22.00;24.20;;;;;;466499;254;1234;-58
2022/03/24 06:01:17;;;;;;;;;;;22.00;24.20;;;;;;466502;254;1083;-57
2022/03/24 06:03:18;;;;;;;;;;;22.00;24.40;;;;;;466451;254;1228;-58
2022/03/24 06:05:20;;;;;;;;;;;22.00;24.30;;;;;;466519;254;1035;-57
2022/03/24 06:07:21;;;;;;;;;;;21.90;24.40;;;;;;466349;254;2183;-57
2022/03/24 06:09:22;;;;;;;;;;;21.90;24.40;;;;;;466516;254;1164;-57
2022/03/24 06:11:24;;;;;;;;;;;21.80;24.40;;;;;;466322;254;1164;-57
2022/03/24 06:13:25;;;;;;;;;;;21.90;24.50;;;;;;466355;254;1001;-57
2022/03/24 06:15:26;;;;;;;;;;;21.80;24.50;;;;;;466451;254;1057;-57
2022/03/24 06:17:27;;;;;;;;;;;21.90;24.50;;;;;;466359;254;1075;-57
2022/03/24 06:19:29;;;;;;;;;;;21.90;24.50;;;;;;466414;254;1147;-58
2022/03/24 06:21:30;;;;;;;;;;;21.80;24.60;;;;;;466361;254;1073;-57
2022/03/24 06:23:31;;;;;;;;;;;21.80;24.60;;;;;;466471;254;1020;-58
2022/03/24 06:25:33;;;;;;;;;;;21.80;24.50;;;;;;466392;254;1292;-57
2022/03/24 06:27:34;;;;;;;;;;;21.80;24.60;;;;;;466525;254;2134;-58
2022/03/24 06:29:35;;;;;;;;;;;21.80;24.70;;;;;;466402;254;1069;-57
2022/03/24 06:31:37;;;;;;;;;;;21.70;24.80;;;;;;466396;254;1104;-57
2022/03/24 06:33:38;;;;;;;;;;;21.70;24.80;;;;;;466323;254;1071;-57
2022/03/24 06:35:39;;;;;;;;;;;21.70;24.90;;;;;;466236;254;1280;-57
2022/03/24 06:37:41;;;;;;;;;;;21.80;24.70;;;;;;466244;254;1200;-57
2022/03/24 06:39:42;;;;;;;;;;;21.70;24.90;;;;;;466305;254;1209;-57
2022/03/24 06:41:44;;;;;;;;;;;21.70;24.90;;;;;;466307;254;1083;-57
2022/03/24 06:43:47;;;;;;;;;;;21.80;24.80;;;;;;466365;254;1371;-57
2022/03/24 06:45:46;;;;;;;;;;;21.70;25.00;;;;;;466325;254;1760;-57
2022/03/24 06:47:47;;;;;;;;;;;21.70;25.00;;;;;;466372;254;2211;-57
2022/03/24 06:49:49;;;;;;;;;;;21.70;25.00;;;;;;466154;254;1041;-57
2022/03/24 06:51:50;;;;;;;;;;;21.70;25.10;;;;;;466212;254;1082;-58
2022/03/24 06:53:51;;;;;;;;;;;21.70;25.20;;;;;;466371;254;1119;-57
2022/03/24 06:55:52;;;;;;;;;;;21.70;25.20;;;;;;466274;254;1185;-57
2022/03/24 06:57:54;;;;;;;;;;;21.60;25.30;;;;;;466159;254;1205;-57
2022/03/24 06:59:55;;;;;;;;;;;21.70;25.30;;;;;;466266;254;1087;-57
2022/03/24 07:01:56;;;;;;;;;;;21.70;25.30;;;;;;466216;254;1090;-57
2022/03/24 07:03:58;;;;;;;;;;;21.80;25.30;;;;;;466180;254;1094;-57
2022/03/24 07:05:59;;;;;;;;;;;21.80;25.40;;;;;;466228;254;1067;-57
2022/03/24 07:08:02;;;;;;;;;;;21.70;25.50;;;;;;466141;254;2200;-57
2022/03/24 07:10:02;;;;;;;;;;;21.90;25.40;;;;;;466114;254;1681;-57
2022/03/24 07:12:03;;;;;;;;;;;21.80;25.50;;;;;;466063;254;1216;-57
2022/03/24 07:14:05;;;;;;;;;;;21.80;25.50;;;;;;466273;254;1064;-57
2022/03/24 07:16:06;;;;;;;;;;;21.90;25.60;;;;;;466067;254;1132;-57
2022/03/24 07:18:07;;;;;;;;;;;22.00;25.60;;;;;;466074;251;1345;-57
2022/03/24 07:20:09;;;;;;;;;;;21.90;25.70;;;;;;466038;254;1079;-58
2022/03/24 07:22:10;;;;;;;;;;;21.90;25.70;;;;;;465982;254;1098;-58
2022/03/24 07:24:11;;;;;;;;;;;22.10;25.60;;;;;;466038;254;1108;-57
2022/03/24 07:26:13;;;;;;;;;;;22.40;25.30;;;;;;466015;254;1100;-57
2022/03/24 07:28:14;;;;;;;;;;;22.40;25.20;;;;;;465962;251;2196;-58
2022/03/24 07:30:15;;;;;;;;;;;22.60;25.20;;;;;;466077;254;1074;-57
2022/03/24 07:32:17;;;;;;;;;;;22.90;24.90;;;;;;466007;254;1061;-58
2022/03/24 07:34:18;;;;;;;;;;;23.00;24.80;;;;;;465970;254;1020;-57
2022/03/24 07:36:20;;;;;;;;;;;23.10;24.70;;;;;;465899;254;1109;-57
2022/03/24 07:38:22;;;;;;;;;;;23.20;24.70;;;;;;466051;254;1241;-58
2022/03/24 07:40:23;;;;;;;;;;;23.30;24.60;;;;;;466082;254;1353;-58
2022/03/24 07:42:24;;;;;;;;;;;23.30;24.70;;;;;;466113;254;1150;-57
2022/03/24 07:44:26;;;;;;;;;;;23.10;24.80;;;;;;466016;254;1115;-57
2022/03/24 07:46:27;;;;;;;;;;;23.20;24.80;;;;;;466006;254;1209;-58
2022/03/24 07:48:30;;;;;;;;;;;23.00;24.90;;;;;;465973;254;2193;-58
2022/03/24 07:50:30;;;;;;;;;;;22.80;25.10;;;;;;465966;254;1897;-58
2022/03/24 07:52:32;;;;;;;;;;;22.60;25.20;;;;;;465814;254;1072;-57
2022/03/24 07:54:33;;;;;;;;;;;22.60;25.30;;;;;;465950;254;1084;-57
2022/03/24 07:56:35;;;;;;;;;;;22.50;25.40;;;;;;465937;254;1146;-58
2022/03/24 07:58:36;;;;;;;;;;;22.40;25.50;;;;;;465943;254;2307;-57
2022/03/24 08:00:37;;;;;;;;;;;22.20;25.60;;;;;;465923;254;1111;-57
2022/03/24 08:02:38;;;;;;;;;;;22.10;25.70;;;;;;465836;254;1073;-57
2022/03/24 08:04:40;;;;;;;;;;;22.10;25.70;;;;;;465841;254;1056;-57
2022/03/24 08:06:42;;;;;;;;;;;22.10;25.80;;;;;;465821;254;1138;-57
2022/03/24 08:08:42;;;;;;;;;;;22.10;25.80;;;;;;465683;254;2185;-57
2022/03/24 08:10:44;;;;;;;;;;;22.10;25.80;;;;;;465606;254;1138;-57
2022/03/24 08:12:45;;;;;;;;;;;22.00;25.80;;;;;;465624;254;1136;-57
2022/03/24 08:14:46;;;;;;;;;;;22.00;25.90;;;;;;465727;254;1181;-57
2022/03/24 08:16:47;;;;;;;;;;;21.90;25.90;;;;;;465803;254;1233;-57
2022/03/24 08:18:49;;;;;;;;;;;22.00;25.90;;;;;;465682;254;1265;-57
2022/03/24 08:20:51;;;;;;;;;;;22.10;25.80;;;;;;465604;254;1482;-57
2022/03/24 08:22:53;;;;;;;;;;;22.10;25.80;;;;;;465801;254;1775;-58
2022/03/24 08:24:54;;;;;;;;;;;22.20;25.80;;;;;;465995;254;1104;-57
2022/03/24 08:26:55;;;;;;;;;;;22.10;25.80;;;;;;465921;254;1298;-58
2022/03/24 08:28:57;;;;;;;;;;;22.10;25.80;;;;;;465903;254;2182;-58
2022/03/24 08:30:58;;;;;;;;;;;22.20;25.80;;;;;;465703;254;1094;-57
2022/03/24 08:32:59;;;;;;;;;;;22.20;25.70;;;;;;465826;254;1107;-57
2022/03/24 08:35:02;;;;;;;;;;;22.20;25.70;;;;;;465911;254;1101;-57
2022/03/24 08:37:02;;;;;;;;;;;22.20;25.80;;;;;;465896;254;2247;-58
2022/03/24 08:39:03;;;;;;;;;;;22.10;25.80;;;;;;465906;254;1053;-57
2022/03/24 08:41:05;;;;;;;;;;;22.20;25.70;;;;;;465907;254;1215;-57
2022/03/24 08:43:06;;;;;;;;;;;22.20;25.80;;;;;;465825;254;1448;-57
2022/03/24 08:45:08;;;;;;;;;;;22.20;25.80;;;;;;465857;254;1144;-57
2022/03/24 08:47:09;;;;;;;;;;;22.20;25.90;;;;;;465820;254;2409;-57
2022/03/24 08:49:11;;;;;;;;;;;22.20;26.00;;;;;;465957;254;1072;-58
2022/03/24 08:51:12;;;;;;;;;;;22.20;25.90;;;;;;466057;254;1985;-57
2022/03/24 08:53:14;;;;;;;;;;;22.20;26.00;;;;;;465860;254;1079;-57
2022/03/24 08:55:15;;;;;;;;;;;22.20;25.90;;;;;;465904;254;1150;-57
2022/03/24 08:57:16;;;;;;;;;;;22.20;25.90;;;;;;465690;254;1230;-57
2022/03/24 08:59:17;;;;;;;;;;;22.30;25.80;;;;;;465152;254;1059;-57
2022/03/24 09:01:21;;;;;;;;;;;22.20;25.90;;;;;;465702;254;1081;-57
2022/03/24 09:03:21;;;;;;;;;;;22.20;26.00;;;;;;465686;254;2156;-57
2022/03/24 09:05:23;;;;;;;;;;;22.20;25.90;;;;;;465692;254;1077;-57
2022/03/24 09:07:24;;;;;;;;;;;22.20;26.00;;;;;;465680;254;2193;-57
2022/03/24 09:09:25;;;;;;;;;;;22.10;26.10;;;;;;465705;254;1089;-57
2022/03/24 09:11:26;;;;;;;;;;;22.30;26.00;;;;;;465630;254;1141;-57
2022/03/24 09:13:28;;;;;;;;;;;22.30;26.00;;;;;;465592;254;1196;-57
2022/03/24 09:15:29;;;;;;;;;;;22.20;26.00;;;;;;465696;254;1099;-59
2022/03/24 09:17:31;;;;;;;;;;;22.40;26.00;;;;;;465625;254;1106;-57
2022/03/24 09:19:33;;;;;;;;;;;22.30;26.00;;;;;;465718;254;1203;-58
2022/03/24 09:21:34;;;;;;;;;;;22.20;26.00;;;;;;465626;254;1206;-57
2022/03/24 09:23:35;;;;;;;;;;;22.30;25.90;;;;;;465762;254;1205;-58
2022/03/24 09:25:38;;;;;;;;;;;22.30;25.90;;;;;;465814;254;1157;-57
2022/03/24 09:27:38;;;;;;;;;;;22.30;25.80;;;;;;465692;254;2204;-57
2022/03/24 09:29:39;;;;;;;;;;;22.20;26.00;;;;;;465918;254;1160;-57
2022/03/24 09:31:41;;;;;;;;;;;22.20;26.00;;;;;;465850;254;1096;-58
2022/03/24 09:33:42;;;;;;;;;;;22.20;26.00;;;;;;465755;254;1058;-56
2022/03/24 09:35:43;;;;;;;;;;;22.30;26.10;;;;;;465785;254;1077;-56
2022/03/24 09:37:45;;;;;;;;;;;22.20;26.20;;;;;;465898;254;1059;-56
2022/03/24 09:39:46;;;;;;;;;;;22.10;26.30;;;;;;465727;254;1113;-57
2022/03/24 09:41:48;;;;;;;;;;;22.00;26.40;;;;;;465685;254;1170;-57
2022/03/24 09:43:49;;;;;;;;;;;22.00;26.40;;;;;;465733;254;1077;-56
2022/03/24 09:45:50;;;;;;;;;;;22.10;26.20;;;;;;465755;254;1069;-57
2022/03/24 09:47:52;;;;;;;;;;;22.00;26.30;;;;;;465847;254;2193;-56
2022/03/24 09:49:53;;;;;;;;;;;21.90;26.40;;;;;;465933;254;1194;-56
2022/03/24 09:51:54;;;;;;;;;;;22.00;26.40;;;;;;465834;254;1099;-56
2022/03/24 09:53:56;;;;;;;;;;;21.90;26.40;;;;;;465883;254;1058;-57
2022/03/24 09:55:57;;;;;;;;;;;22.10;26.40;;;;;;465811;254;1091;-56
2022/03/24 09:57:59;;;;;;;;;;;22.00;26.40;;;;;;465929;254;1228;-57
2022/03/24 10:00:00;;;;;;;;;;;22.00;26.50;;;;;;465903;254;1072;-57
2022/03/24 10:02:01;;;;;;;;;;;22.00;26.60;;;;;;465726;254;1035;-56
2022/03/24 10:04:03;;;;;;;;;;;22.00;26.50;;;;;;465759;254;1068;-56
2022/03/24 10:06:07;;;;;;;;;;;22.10;26.40;;;;;;465683;254;1055;-57
2022/03/24 10:08:06;;;;;;;;;;;22.00;26.40;;;;;;465869;254;2275;-57
2022/03/24 10:10:08;;;;;;;;;;;22.00;26.40;;;;;;465831;254;1036;-57
2022/03/24 10:12:08;;;;;;;;;;;22.00;26.30;;;;;;465740;254;1182;-57
2022/03/24 10:14:10;;;;;;;;;;;22.10;26.10;;;;;;465806;254;1104;-57
2022/03/24 10:16:11;;;;;;;;;;;22.10;26.10;;;;;;465781;254;1055;-56
2022/03/24 10:18:12;;;;;;;;;;;22.10;26.10;;;;;;465766;254;1049;-57
2022/03/24 10:20:15;;;;;;;;;;;22.00;26.10;;;;;;465826;254;1085;-57
2022/03/24 10:22:16;;;;;;;;;;;22.00;26.00;;;;;;465728;254;1071;-57
2022/03/24 10:24:17;;;;;;;;;;;22.10;25.90;;;;;;465848;254;1067;-56
2022/03/24 10:26:18;;;;;;;;;;;22.10;25.80;;;;;;465884;254;1125;-56
2022/03/24 10:28:21;;;;;;;;;;;22.10;25.80;;;;;;465854;254;2197;-57
2022/03/24 10:30:21;;;;;;;;;;;22.00;25.90;;;;;;465712;254;2316;-56
2022/03/24 10:32:22;;;;;;;;;;;22.10;25.70;;;;;;465731;254;1114;-56
2022/03/24 10:34:24;;;;;;;;;;;22.10;25.70;;;;;;465818;254;1197;-57
2022/03/24 10:36:26;;;;;;;;;;;22.10;25.50;;;;;;465763;254;1110;-57
2022/03/24 10:38:26;;;;;;;;;;;22.20;25.50;;;;;;465890;254;1599;-56
2022/03/24 10:40:29;;;;;;;;;;;22.20;25.50;;;;;;465704;254;1066;-56
2022/03/24 10:42:29;;;;;;;;;;;22.20;25.50;;;;;;465700;254;2304;-57
2022/03/24 10:44:30;;;;;;;;;;;22.10;25.50;;;;;;465898;254;1029;-57
2022/03/24 10:46:32;;;;;;;;;;;22.10;25.40;;;;;;465912;254;1145;-56
2022/03/24 10:48:33;;;;;;;;;;;22.20;25.40;;;;;;465942;254;2209;-56
2022/03/24 10:50:38;;;;;;;;;;;22.10;25.50;;;;;;465861;254;1132;-57
2022/03/24 10:52:36;;;;;;;;;;;22.20;25.40;;;;;;465936;254;2212;-56
2022/03/24 10:54:37;;;;;;;;;;;22.10;25.40;;;;;;465662;254;1089;-57
2022/03/24 10:56:39;;;;;;;;;;;22.10;25.40;;;;;;465692;254;1128;-56
2022/03/24 10:58:40;;;;;;;;;;;22.20;25.30;;;;;;465785;254;1398;-56
2022/03/24 11:00:41;;;;;;;;;;;22.20;25.40;;;;;;465786;254;1081;-56
2022/03/24 11:02:42;;;;;;;;;;;22.20;25.50;;;;;;465851;254;1245;-56
2022/03/24 11:04:44;;;;;;;;;;;22.20;25.40;;;;;;465619;254;1130;-57
2022/03/24 11:06:45;;;;;;;;;;;22.30;25.30;;;;;;465618;254;1146;-57
2022/03/24 11:08:47;;;;;;;;;;;22.20;25.30;;;;;;465844;254;2201;-57
2022/03/24 11:10:48;;;;;;;;;;;22.20;25.30;;;;;;465942;254;1062;-57
2022/03/24 11:12:49;;;;;;;;;;;22.30;25.20;;;;;;465836;254;1206;-56
2022/03/24 11:14:51;;;;;;;;;;;22.20;25.30;;;;;;465946;254;1053;-57
2022/03/24 11:16:53;;;;;;;;;;;22.10;25.20;;;;;;466013;254;1370;-57
2022/03/24 11:18:54;;;;;;;;;;;22.10;25.20;;;;;;465876;254;1219;-56
2022/03/24 11:20:55;;;;;;;;;;;22.30;25.20;;;;;;465733;254;1057;-56
2022/03/24 11:22:56;;;;;;;;;;;22.20;25.20;;;;;;465888;254;1077;-56
2022/03/24 11:24:58;;;;;;;;;;;22.20;25.10;;;;;;465788;254;1114;-57
2022/03/24 11:26:59;;;;;;;;;;;22.30;25.10;;;;;;465701;254;1331;-56
2022/03/24 11:29:00;;;;;;;;;;;22.20;25.10;;;;;;465739;254;2157;-56
2022/03/24 11:31:02;;;;;;;;;;;22.30;25.00;;;;;;465803;254;1052;-56
2022/03/24 11:33:03;;;;;;;;;;;22.20;25.00;;;;;;465909;254;1095;-57
2022/03/24 11:35:05;;;;;;;;;;;22.20;25.00;;;;;;465915;254;1108;-57
2022/03/24 11:37:06;;;;;;;;;;;22.20;25.00;;;;;;466489;254;1208;-57
2022/03/24 11:39:09;;;;;;;;;;;22.20;25.10;;;;;;465790;251;1353;-56
2022/03/24 11:41:09;;;;;;;;;;;22.20;24.90;;;;;;465802;254;1236;-56
2022/03/24 11:43:11;;;;;;;;;;;22.20;24.90;;;;;;465832;254;1175;-57
2022/03/24 11:45:12;;;;;;;;;;;22.20;24.90;;;;;;465915;254;1133;-57
2022/03/24 11:47:13;;;;;;;;;;;22.20;24.90;;;;;;465886;254;1083;-56
2022/03/24 11:49:16;;;;;;;;;;;22.20;24.90;;;;;;465773;254;2213;-56
2022/03/24 11:51:16;;;;;;;;;;;22.30;24.80;;;;;;465874;254;2050;-56
2022/03/24 11:53:18;;;;;;;;;;;22.20;24.90;;;;;;465858;254;1087;-57
2022/03/24 11:55:19;;;;;;;;;;;22.20;24.90;;;;;;465780;254;1041;-57
2022/03/24 11:57:20;;;;;;;;;;;22.10;24.90;;;;;;465878;254;1073;-57